Terminal Aerodrome Forecast
Issued by NWS Wilmington, OH

Current Version | Previous Version | Text Only | Print | Product List | Glossary Off
Versions: 1 2 3 4 5 6 7 8 9 10 11 12 13 14 15 16 17 18 19 20

000
FTUS41 KILN 180900 AAB
TAFDAY
TAF AMD
KDAY 180925Z 1809/1906 06004KT 4SM BR SCT050
     FM181000 05004KT 3SM BR OVC025
     FM181300 05005KT 4SM BR OVC015
     FM181600 04006KT P6SM OVC022
     FM181800 03006KT P6SM VCSH BKN040
     FM182100 VRB04KT P6SM BKN100
     FM190400 16004KT P6SM BKN250=

USA.gov is the U.S. government's official web portal to all federal, state and local government web resources and services.